createdAt,value
2019-03-19T00:02:16.394Z,6.97
2019-03-19T00:04:46.018Z,14.70
2019-03-19T00:07:15.777Z,5.53
2019-03-19T00:09:45.490Z,6.23
2019-03-19T00:12:15.089Z,7.07
2019-03-19T00:14:44.755Z,5.90
2019-03-19T00:17:14.371Z,6.60
2019-03-19T00:19:44.045Z,8.53
2019-03-19T00:22:13.650Z,6.30
2019-03-19T00:24:43.283Z,4.07
2019-03-19T00:27:12.936Z,6.67
2019-03-19T00:29:42.526Z,4.07
2019-03-19T00:32:12.187Z,5.50
2019-03-19T00:34:41.811Z,6.57
2019-03-19T00:37:11.431Z,3.63
2019-03-19T00:39:41.132Z,3.93
2019-03-19T00:42:10.725Z,4.80
2019-03-19T00:44:40.317Z,6.03
2019-03-19T00:47:09.951Z,8.67
2019-03-19T00:49:39.567Z,5.10
2019-03-19T00:52:10.359Z,4.80
2019-03-19T00:54:40.016Z,10.23
2019-03-19T00:57:09.687Z,4.70
2019-03-19T00:59:39.301Z,4.27
2019-03-19T01:02:08.902Z,3.50
2019-03-19T01:04:38.528Z,3.27
2019-03-19T01:07:08.254Z,3.93
2019-03-19T01:09:37.867Z,4.80
2019-03-19T01:12:07.514Z,3.40
2019-03-19T01:14:37.154Z,6.30
2019-03-19T01:17:06.765Z,4.03
2019-03-19T01:19:36.382Z,4.73
2019-03-19T01:22:06.037Z,3.23
2019-03-19T01:24:35.628Z,3.20
2019-03-19T01:27:05.275Z,3.23
2019-03-19T01:29:34.898Z,3.57
2019-03-19T01:32:04.534Z,4.20
2019-03-19T01:34:34.139Z,3.07
2019-03-19T01:37:03.907Z,2.77
2019-03-19T01:39:33.512Z,2.57
2019-03-19T01:42:03.113Z,4.50
2019-03-19T01:44:32.753Z,3.77
2019-03-19T01:47:03.679Z,1.97
2019-03-19T01:49:33.408Z,2.23
2019-03-19T01:52:03.002Z,4.00
2019-03-19T01:54:32.617Z,2.37
2019-03-19T01:57:02.290Z,2.30
2019-03-19T01:59:31.885Z,3.37
2019-03-19T02:02:03.970Z,1.60
2019-03-19T02:04:33.588Z,3.40
2019-03-19T02:07:03.194Z,2.50
2019-03-19T02:09:32.846Z,1.10
2019-03-19T02:12:02.440Z,1.03
2019-03-19T02:14:32.091Z,1.43
2019-03-19T02:17:01.697Z,1.93
2019-03-19T02:19:31.326Z,3.07
2019-03-19T02:22:00.939Z,1.70
2019-03-19T02:24:30.590Z,2.20
2019-03-19T02:27:00.226Z,4.35
2019-03-19T02:29:29.835Z,4.20
2019-03-19T02:31:59.445Z,3.60
2019-03-19T02:34:29.095Z,2.93
2019-03-19T02:36:58.701Z,6.67
2019-03-19T02:39:28.319Z,4.97
2019-03-19T02:41:57.935Z,6.30
2019-03-19T02:44:27.582Z,3.50
2019-03-19T02:46:57.241Z,4.27
2019-03-19T02:49:26.841Z,4.73
2019-03-19T02:51:56.447Z,4.47
2019-03-19T02:54:26.091Z,8.13
2019-03-19T02:56:55.688Z,3.90
2019-03-19T02:59:25.334Z,7.10
2019-03-19T03:01:54.974Z,7.13
2019-03-19T03:04:24.598Z,2.63
2019-03-19T03:06:54.200Z,2.87
2019-03-19T03:09:23.844Z,6.23
2019-03-19T03:11:53.469Z,3.73
2019-03-19T03:14:23.083Z,4.53
2019-03-19T03:16:52.740Z,6.80
2019-03-19T03:19:22.359Z,3.67
2019-03-19T03:21:52.005Z,1.97
2019-03-19T03:24:21.648Z,3.83
2019-03-19T03:26:51.311Z,4.70
2019-03-19T03:29:21.451Z,4.20
2019-03-19T03:31:51.171Z,3.10
2019-03-19T03:34:20.733Z,3.83
2019-03-19T03:36:50.355Z,8.13
2019-03-19T03:39:19.973Z,9.63
2019-03-19T03:41:49.597Z,6.47
2019-03-19T03:44:19.235Z,2.93
2019-03-19T03:46:48.858Z,5.70
2019-03-19T03:49:18.486Z,4.67
2019-03-19T03:51:48.092Z,6.50
2019-03-19T03:54:17.701Z,6.20
2019-03-19T03:57:00.875Z,6.50
2019-03-19T03:59:17.430Z,9.33
2019-03-19T04:01:47.089Z,5.43
2019-03-19T04:04:16.682Z,5.93
2019-03-19T04:06:46.324Z,4.83
2019-03-19T04:09:15.956Z,6.17
2019-03-19T04:11:45.605Z,11.30
2019-03-19T04:14:15.243Z,4.17
2019-03-19T04:16:44.947Z,6.40
2019-03-19T04:19:14.566Z,3.50
2019-03-19T04:21:44.304Z,4.53
2019-03-19T04:24:13.911Z,6.47
2019-03-19T04:26:43.521Z,4.73
2019-03-19T04:29:13.145Z,2.57
2019-03-19T04:31:42.793Z,4.43
2019-03-19T04:34:12.437Z,2.20
2019-03-19T04:36:42.056Z,5.50
2019-03-19T04:39:14.622Z,6.47
2019-03-19T04:41:44.238Z,7.93
2019-03-19T04:44:13.870Z,3.57
2019-03-19T04:46:43.541Z,4.90
2019-03-19T04:49:13.163Z,4.63
2019-03-19T04:51:42.835Z,3.10
2019-03-19T04:54:12.536Z,5.60
2019-03-19T04:56:42.139Z,5.27
2019-03-19T04:59:11.837Z,7.33
2019-03-19T05:01:41.478Z,6.47
2019-03-19T05:04:11.095Z,2.70
2019-03-19T05:06:40.715Z,3.10
2019-03-19T05:09:10.394Z,4.47
2019-03-19T05:11:40.003Z,5.70
2019-03-19T05:14:09.623Z,5.37
2019-03-19T05:16:39.300Z,4.87
2019-03-19T05:19:08.914Z,3.20
2019-03-19T05:21:38.533Z,7.83
2019-03-19T05:24:08.175Z,6.00
2019-03-19T05:26:37.822Z,5.97
2019-03-19T05:29:07.450Z,4.77
2019-03-19T05:31:37.096Z,6.33
2019-03-19T05:34:06.746Z,3.63
2019-03-19T05:36:36.376Z,6.13
2019-03-19T05:39:07.683Z,3.20
2019-03-19T05:41:37.307Z,6.40
2019-03-19T05:44:07.030Z,5.60
2019-03-19T05:46:36.702Z,3.67
2019-03-19T05:49:07.078Z,4.40
2019-03-19T05:51:36.764Z,4.30
2019-03-19T05:54:07.673Z,5.47
2019-03-19T05:56:37.341Z,5.23
2019-03-19T05:59:07.038Z,7.00
2019-03-19T06:01:36.716Z,2.80
2019-03-19T06:04:06.475Z,3.77
2019-03-19T06:06:36.830Z,5.53
2019-03-19T06:09:08.330Z,3.70
2019-03-19T06:11:37.996Z,5.77
2019-03-19T06:14:07.729Z,7.17
2019-03-19T06:16:38.679Z,6.87
2019-03-19T06:19:08.358Z,3.90
2019-03-19T06:21:40.716Z,4.87
2019-03-19T06:24:10.349Z,5.57
2019-03-19T06:26:39.963Z,3.57
2019-03-19T06:29:09.729Z,5.47
2019-03-19T06:31:39.518Z,6.20
2019-03-19T06:34:09.158Z,5.43
2019-03-19T06:36:38.846Z,5.53
2019-03-19T06:39:08.734Z,3.23
2019-03-19T06:41:38.354Z,7.27
2019-03-19T06:44:08.006Z,7.87
2019-03-19T06:46:37.633Z,3.43
2019-03-19T06:49:07.238Z,3.53
2019-03-19T06:51:36.912Z,3.73
2019-03-19T06:54:06.553Z,6.40
2019-03-19T06:56:36.170Z,5.13
2019-03-19T06:59:06.908Z,5.83
2019-03-19T07:01:36.546Z,6.33
2019-03-19T07:04:06.193Z,3.33
2019-03-19T07:06:36.551Z,6.97
2019-03-19T07:09:08.519Z,5.10
2019-03-19T07:11:38.158Z,5.03
2019-03-19T07:14:07.759Z,3.87
2019-03-19T07:16:37.401Z,6.17
2019-03-19T07:19:07.047Z,6.80
2019-03-19T07:21:36.699Z,5.77
2019-03-19T07:24:07.588Z,4.23
2019-03-19T07:26:39.734Z,4.23
2019-03-19T07:29:09.371Z,5.97
2019-03-19T07:31:38.984Z,13.03
2019-03-19T07:34:08.610Z,6.40
2019-03-19T07:36:38.266Z,6.63
2019-03-19T07:39:08.623Z,3.93
2019-03-19T07:41:39.532Z,8.47
2019-03-19T07:44:09.161Z,4.17
2019-03-19T07:46:38.796Z,4.73
2019-03-19T07:49:09.387Z,4.37
2019-03-19T07:51:40.239Z,3.37
2019-03-19T07:54:09.994Z,4.67
2019-03-19T07:56:39.660Z,3.80
2019-03-19T07:59:10.559Z,5.20
2019-03-19T08:01:40.235Z,3.02
2019-03-19T08:04:09.951Z,3.98
2019-03-19T08:06:39.596Z,6.33
2019-03-19T08:09:09.266Z,5.08
2019-03-19T08:11:38.943Z,3.37
2019-03-19T08:14:08.590Z,4.30
2019-03-19T08:16:38.251Z,6.85
2019-03-19T08:19:07.941Z,6.92
2019-03-19T08:21:38.775Z,6.30
2019-03-19T08:24:08.419Z,3.60
2019-03-19T08:26:38.061Z,6.10
2019-03-19T08:29:10.250Z,4.53
2019-03-19T08:31:39.913Z,7.10
2019-03-19T08:34:09.561Z,5.95
2019-03-19T08:36:39.255Z,6.45
2019-03-19T08:39:08.946Z,5.97
2019-03-19T08:41:38.599Z,4.53
2019-03-19T08:44:08.255Z,5.50
2019-03-19T08:46:37.905Z,2.72
2019-03-19T08:49:09.257Z,3.95
2019-03-19T08:51:39.593Z,4.12
2019-03-19T08:54:09.250Z,3.70
2019-03-19T08:56:40.221Z,2.17
2019-03-19T08:59:09.880Z,3.65
2019-03-19T09:01:43.435Z,2.70
2019-03-19T09:04:13.143Z,3.67
2019-03-19T09:06:42.798Z,3.20
2019-03-19T09:09:12.477Z,5.25
2019-03-19T09:11:42.142Z,4.70
2019-03-19T09:14:11.781Z,3.67
2019-03-19T09:16:41.461Z,3.30
2019-03-19T09:19:11.132Z,4.17
2019-03-19T09:21:43.233Z,2.20
2019-03-19T09:24:15.945Z,3.05
2019-03-19T09:26:45.594Z,1.90
2019-03-19T09:29:17.341Z,3.55
2019-03-19T09:31:46.274Z,4.33
2019-03-19T09:34:15.978Z,4.55
2019-03-19T09:36:45.635Z,3.17
2019-03-19T09:39:19.234Z,5.97
2019-03-19T09:41:48.906Z,2.20
2019-03-19T09:44:18.714Z,4.28
2019-03-19T09:46:48.422Z,3.05
2019-03-19T09:49:18.088Z,3.35
2019-03-19T09:51:47.738Z,4.50
2019-03-19T09:54:17.426Z,3.30
2019-03-19T09:56:47.119Z,4.55
2019-03-19T09:59:26.609Z,4.37
2019-03-19T10:01:46.446Z,2.98
2019-03-19T10:04:17.398Z,3.22
2019-03-19T10:06:47.320Z,3.62
2019-03-19T10:09:16.740Z,6.42
2019-03-19T10:11:46.464Z,3.33
2019-03-19T10:14:16.142Z,3.95
2019-03-19T10:16:45.775Z,2.15
2019-03-19T10:19:16.706Z,1.87
2019-03-19T10:21:46.362Z,5.22
2019-03-19T10:24:16.109Z,4.40
2019-03-19T10:26:47.067Z,3.87
2019-03-19T10:29:16.754Z,3.83
2019-03-19T10:31:46.698Z,2.00
2019-03-19T10:34:16.479Z,4.05
2019-03-19T10:36:46.252Z,2.87
2019-03-19T10:39:15.934Z,3.08
2019-03-19T10:41:45.608Z,2.42
2019-03-19T10:44:15.259Z,1.45
2019-03-19T10:46:44.930Z,2.50
2019-03-19T10:49:16.943Z,3.50
2019-03-19T10:51:46.598Z,4.35
2019-03-19T10:54:16.258Z,5.55
2019-03-19T10:56:45.914Z,3.58
2019-03-19T10:59:15.543Z,3.45
2019-03-19T11:01:45.284Z,5.12
2019-03-19T11:04:16.113Z,2.25
2019-03-19T11:06:45.742Z,2.45
2019-03-19T11:09:15.455Z,2.17
2019-03-19T11:11:45.075Z,3.22
2019-03-19T11:14:14.722Z,3.15
2019-03-19T11:16:44.526Z,2.77
2019-03-19T11:19:14.174Z,2.83
2019-03-19T11:21:43.858Z,4.40
2019-03-19T11:24:13.524Z,5.60
2019-03-19T11:26:43.150Z,4.53
2019-03-19T11:29:12.814Z,2.80
2019-03-19T11:31:42.482Z,3.50
2019-03-19T11:34:12.122Z,4.60
2019-03-19T11:36:41.777Z,4.83
2019-03-19T11:39:11.407Z,3.62
2019-03-19T11:41:41.119Z,5.03
2019-03-19T11:44:10.758Z,7.78
2019-03-19T11:46:41.600Z,4.37
2019-03-19T11:49:11.256Z,5.35
2019-03-19T11:51:40.910Z,3.58
2019-03-19T11:54:10.560Z,6.50
2019-03-19T11:56:40.202Z,5.15
2019-03-19T11:59:09.899Z,3.98
2019-03-19T12:01:39.590Z,3.62
2019-03-19T12:04:09.216Z,4.80
2019-03-19T12:06:38.866Z,3.05
2019-03-19T12:09:08.517Z,2.95
2019-03-19T12:11:39.491Z,4.47
2019-03-19T12:14:09.132Z,9.33
2019-03-19T12:16:39.889Z,6.90
2019-03-19T12:19:09.510Z,3.80
2019-03-19T12:21:39.142Z,4.70
2019-03-19T12:24:10.072Z,3.27
2019-03-19T12:26:39.680Z,2.90
2019-03-19T12:29:09.290Z,3.60
2019-03-19T12:31:39.026Z,1.93
2019-03-19T12:34:08.710Z,2.77
2019-03-19T12:36:38.287Z,4.17
2019-03-19T12:39:09.802Z,2.97
2019-03-19T12:41:38.334Z,7.03
2019-03-19T12:44:08.724Z,4.50
2019-03-19T12:46:39.754Z,8.23
2019-03-19T12:49:09.387Z,4.47
2019-03-19T12:51:40.177Z,5.27
2019-03-19T12:54:09.842Z,6.93
2019-03-19T12:56:39.536Z,4.63
2019-03-19T12:59:20.242Z,1.93
2019-03-19T13:01:42.586Z,6.40
2019-03-19T13:04:12.251Z,4.90
2019-03-19T13:06:43.222Z,5.30
2019-03-19T13:09:12.905Z,9.23
2019-03-19T13:11:43.869Z,2.20
2019-03-19T13:14:14.406Z,4.80
2019-03-19T13:16:44.086Z,3.10
2019-03-19T13:19:13.784Z,3.23
2019-03-19T13:21:44.624Z,3.83
2019-03-19T13:24:14.246Z,3.07
2019-03-19T13:26:44.010Z,3.13
2019-03-19T13:29:13.639Z,5.40
2019-03-19T13:31:43.287Z,3.87
2019-03-19T13:34:12.942Z,2.10
2019-03-19T13:36:46.194Z,3.60
2019-03-19T13:39:17.507Z,4.70
2019-03-19T13:41:47.176Z,2.40
2019-03-19T13:44:16.825Z,5.27
2019-03-19T13:46:46.445Z,5.43
2019-03-19T13:49:16.090Z,3.90
2019-03-19T13:51:45.699Z,3.90
2019-03-19T13:54:16.723Z,3.07
2019-03-19T13:56:44.986Z,3.73
2019-03-19T13:59:15.929Z,5.03
2019-03-19T14:01:45.438Z,5.20
2019-03-19T14:04:16.364Z,5.97
2019-03-19T14:06:45.986Z,4.67
2019-03-19T14:09:15.592Z,4.93
2019-03-19T14:11:46.522Z,4.63
2019-03-19T14:14:16.138Z,4.93
2019-03-19T14:16:45.803Z,6.67
2019-03-19T14:19:15.472Z,3.97
2019-03-19T14:21:45.137Z,4.23
2019-03-19T14:24:19.571Z,4.83
2019-03-19T14:26:50.430Z,6.97
2019-03-19T14:29:18.842Z,4.07
2019-03-19T14:31:48.489Z,4.73
2019-03-19T14:34:18.162Z,5.23
2019-03-19T14:36:47.770Z,5.30
2019-03-19T14:39:17.379Z,3.50
2019-03-19T14:41:47.024Z,4.97
2019-03-19T14:44:16.636Z,7.40
2019-03-19T14:46:47.586Z,6.10
2019-03-19T14:49:18.467Z,4.80
2019-03-19T14:51:48.075Z,6.20
2019-03-19T14:54:19.059Z,4.43
2019-03-19T14:56:48.691Z,4.87
2019-03-19T14:59:18.339Z,3.03
2019-03-19T15:01:48.022Z,6.30
2019-03-19T15:04:17.687Z,2.37
2019-03-19T15:06:47.357Z,2.77
2019-03-19T15:09:18.238Z,4.67
2019-03-19T15:11:47.894Z,5.20
2019-03-19T15:14:17.505Z,3.73
2019-03-19T15:16:47.120Z,4.67
2019-03-19T15:19:17.998Z,3.27
2019-03-19T15:21:47.668Z,6.63
2019-03-19T15:24:17.492Z,5.27
2019-03-19T15:26:47.115Z,4.30
2019-03-19T15:29:18.162Z,4.23
2019-03-19T15:31:47.834Z,8.93
2019-03-19T15:34:18.801Z,3.90
2019-03-19T15:36:50.948Z,6.63
2019-03-19T15:39:21.894Z,8.63
2019-03-19T15:41:51.507Z,4.67
2019-03-19T15:44:22.331Z,6.43
2019-03-19T15:46:51.942Z,4.60
2019-03-19T15:49:21.558Z,4.43
2019-03-19T15:51:52.493Z,5.47
2019-03-19T15:54:22.091Z,8.10
2019-03-19T15:56:52.943Z,6.73
2019-03-19T15:59:22.550Z,4.67
2019-03-19T16:01:52.190Z,6.30
2019-03-19T16:04:21.832Z,8.10
2019-03-19T16:06:51.442Z,9.67
2019-03-19T16:09:22.342Z,6.00
2019-03-19T16:11:51.997Z,8.07
2019-03-19T16:14:21.708Z,9.90
2019-03-19T16:16:51.402Z,7.80
2019-03-19T16:19:21.040Z,7.30
2019-03-19T16:21:50.678Z,8.20
2019-03-19T16:24:20.332Z,14.73
2019-03-19T16:26:50.033Z,16.90
2019-03-19T16:29:20.878Z,17.57
2019-03-19T16:31:51.324Z,16.97
2019-03-19T16:34:21.496Z,16.43
2019-03-19T16:36:50.022Z,19.17
2019-03-19T16:39:20.933Z,15.50
2019-03-19T16:41:51.787Z,13.30
2019-03-19T16:44:21.454Z,12.20
2019-03-19T16:46:51.115Z,12.83
2019-03-19T16:49:20.777Z,13.20
2019-03-19T16:51:50.483Z,11.87
2019-03-19T16:54:20.152Z,14.57
2019-03-19T16:56:49.793Z,64.10
2019-03-19T16:59:19.528Z,15.93
2019-03-19T17:01:49.142Z,14.00
2019-03-19T17:04:18.758Z,15.33
2019-03-19T17:06:48.474Z,13.03
2019-03-19T17:09:18.112Z,14.23
2019-03-19T17:11:47.733Z,11.27
2019-03-19T17:14:18.642Z,13.13
2019-03-19T17:16:48.263Z,14.67
2019-03-19T17:19:17.887Z,7.63
2019-03-19T17:21:47.591Z,8.57
2019-03-19T17:24:19.746Z,24.40
2019-03-19T17:26:49.401Z,14.57
2019-03-19T17:29:19.087Z,15.33
2019-03-19T17:31:48.778Z,14.00
2019-03-19T17:34:19.658Z,10.07
2019-03-19T17:36:49.438Z,9.53
2019-03-19T17:39:20.353Z,5.47
2019-03-19T17:41:50.050Z,7.47
2019-03-19T17:44:19.716Z,10.00
2019-03-19T17:46:49.345Z,13.57
2019-03-19T17:49:19.043Z,12.60
2019-03-19T17:51:48.666Z,12.30
2019-03-19T17:54:18.351Z,10.03
2019-03-19T17:56:48.046Z,10.47
2019-03-19T17:59:17.699Z,7.63
2019-03-19T18:01:47.334Z,10.77
2019-03-19T18:04:18.802Z,11.23
2019-03-19T18:06:48.444Z,8.13
2019-03-19T18:09:18.062Z,8.70
2019-03-19T18:11:48.930Z,16.13
2019-03-19T18:14:18.603Z,12.40
2019-03-19T18:16:48.224Z,23.83
2019-03-19T18:19:17.894Z,17.50
2019-03-19T18:21:47.532Z,18.37
2019-03-19T18:24:17.145Z,14.57
2019-03-19T18:26:47.107Z,16.67
2019-03-19T18:29:20.365Z,14.50
2019-03-19T18:31:49.998Z,7.50
2019-03-19T18:34:19.607Z,11.10
2019-03-19T18:36:49.286Z,10.23
2019-03-19T18:39:19.598Z,16.97
2019-03-19T18:41:50.401Z,14.57
2019-03-19T18:44:20.167Z,13.07
2019-03-19T18:46:49.782Z,16.77
2019-03-19T18:49:19.443Z,34.30
2019-03-19T18:51:49.084Z,20.73
2019-03-19T18:54:21.175Z,16.00
2019-03-19T18:56:50.843Z,13.97
2019-03-19T18:59:20.459Z,18.37
2019-03-19T19:01:50.128Z,12.90
2019-03-19T19:04:19.771Z,11.90
2019-03-19T19:06:49.474Z,13.43
2019-03-19T19:09:19.088Z,15.17
2019-03-19T19:11:49.987Z,12.87
2019-03-19T19:14:20.884Z,14.33
2019-03-19T19:16:51.409Z,11.20
2019-03-19T19:19:21.033Z,10.33
2019-03-19T19:21:50.665Z,12.30
2019-03-19T19:26:56.167Z,14.30
2019-03-19T19:29:27.243Z,12.37
2019-03-19T19:31:56.861Z,7.70
2019-03-19T19:34:26.516Z,10.73
2019-03-19T19:36:56.191Z,14.47
2019-03-19T19:39:28.258Z,21.07
2019-03-19T19:41:57.887Z,20.90
2019-03-19T19:44:29.960Z,18.23
2019-03-19T19:46:58.426Z,24.40
2019-03-19T19:49:28.036Z,25.83
2019-03-19T19:51:59.034Z,25.47
2019-03-19T19:54:29.874Z,35.13
2019-03-19T19:56:59.506Z,28.90
2019-03-19T19:59:30.351Z,35.50
2019-03-19T20:02:02.388Z,25.17
2019-03-19T20:04:33.272Z,16.97
2019-03-19T20:07:02.900Z,15.90
2019-03-19T20:09:33.814Z,15.00
2019-03-19T20:12:03.455Z,13.47
2019-03-19T20:14:33.258Z,17.33
2019-03-19T20:17:02.924Z,14.77
2019-03-19T20:19:32.622Z,12.77
2019-03-19T20:22:03.507Z,10.33
2019-03-19T20:24:33.371Z,12.27
2019-03-19T20:27:03.166Z,12.27
2019-03-19T20:29:32.808Z,10.20
2019-03-19T20:32:02.422Z,13.20
2019-03-19T20:34:33.539Z,14.83
2019-03-19T20:37:03.198Z,11.50
2019-03-19T20:39:32.822Z,8.33
2019-03-19T20:42:02.502Z,15.07
2019-03-19T20:44:32.166Z,17.37
2019-03-19T20:47:01.801Z,12.57
2019-03-19T20:49:31.428Z,10.80
2019-03-19T20:52:01.137Z,9.97
2019-03-19T20:54:30.762Z,9.43
2019-03-19T20:57:02.939Z,11.67
2019-03-19T20:59:32.618Z,8.57
2019-03-19T21:02:02.262Z,11.77
2019-03-19T21:04:33.926Z,10.07
2019-03-19T21:07:03.588Z,16.77
2019-03-19T21:09:33.260Z,9.63
2019-03-19T21:12:04.151Z,11.07
2019-03-19T21:14:35.075Z,8.60
2019-03-19T21:17:04.940Z,11.20
2019-03-19T21:19:34.889Z,13.37
2019-03-19T21:22:05.997Z,12.23
2019-03-19T21:24:35.703Z,11.67
2019-03-19T21:27:05.361Z,11.47
2019-03-19T21:29:35.014Z,16.00
2019-03-19T21:32:04.666Z,14.40
2019-03-19T21:34:34.314Z,9.93
2019-03-19T21:37:05.193Z,8.57
2019-03-19T21:39:34.876Z,12.33
2019-03-19T21:43:33.981Z,10.80
2019-03-19T21:46:03.710Z,8.33
2019-03-19T21:48:33.341Z,10.17
2019-03-19T21:51:04.310Z,10.87
2019-03-19T21:53:33.958Z,12.73
2019-03-19T21:56:03.665Z,12.00
2019-03-19T21:58:33.297Z,9.63
2019-03-19T22:01:02.913Z,7.53
2019-03-19T22:03:32.608Z,9.70
2019-03-19T22:06:02.242Z,11.17
2019-03-19T22:08:31.965Z,9.17
2019-03-19T22:11:02.904Z,11.07
2019-03-19T22:13:32.531Z,11.83
2019-03-19T22:16:03.355Z,13.00
2019-03-19T22:18:32.966Z,8.77
2019-03-19T22:21:02.599Z,11.47
2019-03-19T22:23:32.217Z,10.47
2019-03-19T22:26:04.337Z,8.00
2019-03-19T22:28:33.946Z,11.83
2019-03-19T22:31:03.565Z,11.30
2019-03-19T22:33:33.541Z,10.23
2019-03-19T22:36:02.951Z,9.47
2019-03-19T22:38:32.567Z,12.57
2019-03-19T22:41:03.524Z,7.87
2019-03-19T22:43:33.148Z,14.13
2019-03-19T22:46:02.754Z,8.60
2019-03-19T22:48:33.770Z,8.93
2019-03-19T22:51:04.709Z,9.77
2019-03-19T22:53:34.314Z,7.07
2019-03-19T22:56:03.946Z,11.80
2019-03-19T22:58:34.862Z,9.47
2019-03-19T23:01:04.488Z,9.33
2019-03-19T23:03:34.117Z,10.33
2019-03-19T23:06:03.753Z,10.37
2019-03-19T23:08:34.372Z,9.33
2019-03-19T23:11:04.053Z,13.60
2019-03-19T23:13:33.741Z,6.77
2019-03-19T23:16:03.338Z,8.30
2019-03-19T23:18:32.990Z,7.33
2019-03-19T23:21:02.628Z,10.87
2019-03-19T23:23:32.575Z,10.30
2019-03-19T23:26:02.183Z,10.93
2019-03-19T23:28:31.790Z,6.27
2019-03-19T23:31:01.431Z,10.83
2019-03-19T23:33:31.060Z,7.80
2019-03-19T23:36:00.774Z,15.33
2019-03-19T23:38:30.410Z,13.63
2019-03-19T23:41:00.068Z,11.20
2019-03-19T23:43:29.697Z,9.10
2019-03-19T23:45:59.314Z,9.00
2019-03-19T23:48:28.937Z,12.43
2019-03-19T23:50:58.561Z,8.50
2019-03-19T23:53:28.165Z,7.50
2019-03-19T23:55:57.797Z,9.90
2019-03-19T23:58:28.819Z,10.93
